Adelsoe, Sweden

5:25 PM CEST on October 22, 2014 (GMT +0200)
Lambaro | Change Station
CLOSE
Current Station
Personal Weather Station
Location: Lambaro, Hasselby, STOCKHOLM
Elevation: 32 ft
Nearby Weather Stations

Elev 32 ft 59.36 °N, 17.81 °E | Updated 5 seconds ago

Mostly Cloudy
Mostly Cloudy
39.9 °F
Feels Like 35 °F
N
7.6
Wind Variable Wind from ESE
Gusts 8.7 mph

Today
High -- | Low -- °F
--% Chance of Precip.
Yesterday
High -- | Low -- °F
Precip. -- in
7:44 AM 5:23 PM
Waning Crescent, 2% visible
Pressure 30.09 in
Visibility 6.2 miles
Clouds Mostly Cloudy 3700 ft
Windchill 35 °F
Dew Point 29 °F
Humidity 64%
Rainfall 0.00 in
Snow Depth Not available.
UV 0 out of 12
Pollen Not available.
Air Quality Not available.
Flu Activity Not available.
METAR ESSB 221520Z 09011KT 060V120 9999 BKN037 04/M03 Q1019

More Conditions Fewer Conditions

Pressure 30.09 in
Visibility 6.2 miles
Clouds Mostly Cloudy 3700 ft
Windchill 35 °F
Dew Point 29 °F
Humidity 64%
Rainfall 0.00 in
Snow Depth Not available.
UV 0 out of 12
Pollen Not available.
Air Quality Not available.
Flu Activity Not available.
METAR ESSB 221520Z 09011KT 060V120 9999 BKN037 04/M03 Q1019

More Conditions Fewer Conditions

10-Day Weather Forecast

Almanac

Astronomy

Oct. 22, 2014 Rise Set
Actual Time 7:44 AM CEST 5:23 PM CEST
Civil Twilight 7:01 AM CEST 6:05 PM CEST
Nautical Twilight 6:14 AM CEST 6:53 PM CEST
Astronomical Twilight 5:27 AM CEST 7:40 PM CEST
Moon 5:47 AM CEST 4:55 PM CEST
Length of Visible Light 11h 03m
Length of Day
9h 39m
Tomorrow will be 5m 10s shorter.
Waning Crescent, 2% of the Moon is Illuminated
Today
Waning Crescent
Oct 23
New
Oct 30
First Quarter
Nov 6
Full
Nov 14
Last Quarter

Today's Extremes

Country Highs Country Lows

Community

WunderPhotos

Upload Photos

1,763,949 photos uploaded!

Nearby

Snow Depth

Not available.

Earthquake Activity

City Distance Mag. Time & Date
No recent earthquake activity has been reported nearby.
Minimum magnitude displayed is 2.5.

Coastal Water Temperatures

Place Temperature
No Stations Reporting

Nearby Weather Stations